Time;durP1;ratioP1;P1;durP2;ratioP2;P2;SDS_P1;SDS_P2;PMS_P1;PMS_P2;Temp;Humidity;BMP_temperature;BMP_pressure;BME280_temperature;BME280_humidity;BME280_pressure;Samples;Min_cycle;Max_cycle;Signal;HPM_P1;HPM_P2
2022/04/08 00:00:00;;;;;;;0.20;0.20;;;;;;;;;;1893752;74;26241;-44
2022/04/08 00:02:27;;;;;;;0.20;0.20;;;;;;;;;;1899763;74;26244;-38
2022/04/08 00:04:56;;;;;;;0.20;0.20;;;;;;;;;;1899020;75;26304;-36
2022/04/08 00:07:23;;;;;;;0.10;0.10;;;;;;;;;;1900711;75;26248;-43
2022/04/08 00:09:50;;;;;;;0.10;0.10;;;;;;;;;;1876095;74;26354;-41
2022/04/08 00:12:17;;;;;;;0.75;0.20;;;;;;;;;;1900599;75;26276;-38
2022/04/08 00:14:45;;;;;;;0.40;0.10;;;;;;;;;;1889653;75;26321;-43
2022/04/08 00:17:13;;;;;;;0.20;0.20;;;;;;;;;;1902938;75;26272;-40
2022/04/08 00:19:40;;;;;;;0.10;0.10;;;;;;;;;;1907713;74;26244;-39
2022/04/08 00:22:07;;;;;;;0.20;0.20;;;;;;;;;;1907163;74;26696;-41
2022/04/08 00:24:35;;;;;;;0.13;0.13;;;;;;;;;;1899646;75;26214;-40
2022/04/08 00:27:02;;;;;;;0.10;0.10;;;;;;;;;;1894584;75;26167;-39
2022/04/08 00:29:29;;;;;;;0.45;0.10;;;;;;;;;;1890020;75;26263;-45
2022/04/08 00:31:59;;;;;;;0.10;0.10;;;;;;;;;;1892145;74;26269;-43
2022/04/08 00:34:27;;;;;;;0.10;0.10;;;;;;;;;;1877803;75;26728;-39
2022/04/08 00:36:55;;;;;;;0.10;0.10;;;;;;;;;;1901630;75;25752;-43
2022/04/08 00:39:23;;;;;;;0.10;0.10;;;;;;;;;;1902077;75;26190;-42
2022/04/08 00:41:50;;;;;;;0.25;0.10;;;;;;;;;;1888129;75;26238;-44
2022/04/08 00:44:18;;;;;;;0.05;0.05;;;;;;;;;;1900003;74;26234;-45
2022/04/08 00:46:45;;;;;;;0.10;0.10;;;;;;;;;;1900454;75;26682;-39
2022/04/08 00:49:12;;;;;;;0.28;0.10;;;;;;;;;;1882532;75;26633;-41
2022/04/08 00:51:40;;;;;;;0.10;0.10;;;;;;;;;;1901817;75;26277;-41
2022/04/08 00:54:07;;;;;;;0.15;0.15;;;;;;;;;;1897013;75;26344;-38
2022/04/08 00:56:35;;;;;;;0.20;0.20;;;;;;;;;;1899901;74;26733;-47
2022/04/08 00:59:03;;;;;;;0.00;0.00;;;;;;;;;;1916521;74;26213;-36
2022/04/08 01:01:32;;;;;;;0.95;0.20;;;;;;;;;;1911468;74;26273;-39
2022/04/08 01:03:59;;;;;;;0.20;0.20;;;;;;;;;;1903132;74;26316;-50
2022/04/08 01:06:27;;;;;;;0.10;0.10;;;;;;;;;;1889206;74;26222;-42
2022/04/08 01:08:54;;;;;;;0.30;0.30;;;;;;;;;;1899984;75;26284;-44
2022/04/08 01:11:21;;;;;;;0.60;0.15;;;;;;;;;;1901734;75;26248;-37
2022/04/08 01:13:50;;;;;;;0.10;0.10;;;;;;;;;;1897249;75;26284;-46
2022/04/08 01:16:19;;;;;;;0.10;0.10;;;;;;;;;;1890309;74;26238;-41
2022/04/08 01:18:46;;;;;;;0.10;0.10;;;;;;;;;;1893830;74;26324;-38
2022/04/08 01:21:14;;;;;;;1.75;0.28;;;;;;;;;;1896859;74;26188;-41
2022/04/08 01:23:42;;;;;;;0.10;0.10;;;;;;;;;;1895378;75;26735;-39
2022/04/08 01:26:11;;;;;;;0.10;0.10;;;;;;;;;;1890921;75;27192;-36
2022/04/08 01:28:39;;;;;;;0.28;0.25;;;;;;;;;;1905604;75;26218;-39
2022/04/08 01:31:06;;;;;;;0.10;0.10;;;;;;;;;;1907005;74;26835;-42
2022/04/08 01:33:33;;;;;;;0.10;0.10;;;;;;;;;;1904296;75;26752;-39
2022/04/08 01:36:01;;;;;;;0.20;0.10;;;;;;;;;;1906024;75;26339;-51
2022/04/08 01:38:28;;;;;;;0.30;0.17;;;;;;;;;;1905991;75;26311;-47
2022/04/08 01:40:55;;;;;;;0.10;0.10;;;;;;;;;;1876374;74;26266;-45
2022/04/08 01:43:22;;;;;;;0.25;0.20;;;;;;;;;;1898615;75;26253;-42
2022/04/08 01:45:50;;;;;;;0.33;0.20;;;;;;;;;;1894030;75;26233;-49
2022/04/08 01:48:17;;;;;;;0.20;0.20;;;;;;;;;;1882799;75;26240;-47
2022/04/08 01:50:45;;;;;;;0.10;0.10;;;;;;;;;;1887613;75;26229;-36
2022/04/08 01:53:15;;;;;;;0.15;0.15;;;;;;;;;;1891886;74;26727;-40
2022/04/08 01:55:42;;;;;;;0.37;0.20;;;;;;;;;;1897017;75;26774;-49
2022/04/08 01:58:10;;;;;;;0.13;0.13;;;;;;;;;;1878478;75;26302;-36
2022/04/08 02:00:38;;;;;;;0.17;0.17;;;;;;;;;;1889520;75;26264;-43
2022/04/08 02:03:06;;;;;;;0.17;0.17;;;;;;;;;;1900091;74;26210;-39
2022/04/08 02:05:33;;;;;;;0.93;0.13;;;;;;;;;;1881371;74;26255;-41
2022/04/08 02:08:00;;;;;;;0.30;0.30;;;;;;;;;;1895978;75;26229;-44
2022/04/08 02:10:27;;;;;;;0.10;0.10;;;;;;;;;;1890225;74;26359;-42
2022/04/08 02:12:55;;;;;;;0.10;0.10;;;;;;;;;;1892986;75;26287;-39
2022/04/08 02:15:24;;;;;;;0.20;0.20;;;;;;;;;;1883235;74;26252;-45
2022/04/08 02:17:51;;;;;;;0.20;0.20;;;;;;;;;;1892335;75;26281;-36
2022/04/08 02:20:18;;;;;;;0.20;0.20;;;;;;;;;;1891340;75;26327;-48
2022/04/08 02:22:45;;;;;;;0.15;0.15;;;;;;;;;;1895486;75;26246;-51
2022/04/08 02:25:13;;;;;;;0.90;0.30;;;;;;;;;;1878168;75;26302;-49
2022/04/08 02:27:40;;;;;;;0.40;0.10;;;;;;;;;;1887305;74;26345;-44
2022/04/08 02:30:08;;;;;;;0.15;0.15;;;;;;;;;;1894658;75;25323;-50
2022/04/08 02:32:36;;;;;;;0.20;0.20;;;;;;;;;;1893730;75;26254;-41
2022/04/08 02:35:03;;;;;;;0.72;0.25;;;;;;;;;;1880498;75;26760;-52
2022/04/08 02:37:31;;;;;;;0.75;0.15;;;;;;;;;;1897380;75;26315;-38
2022/04/08 02:39:59;;;;;;;0.10;0.10;;;;;;;;;;1879706;74;26748;-40
2022/04/08 02:42:30;;;;;;;0.10;0.10;;;;;;;;;;1888637;74;26228;-45
2022/04/08 02:44:55;;;;;;;0.30;0.30;;;;;;;;;;1885294;75;26190;-40
2022/04/08 02:47:22;;;;;;;0.30;0.30;;;;;;;;;;1893019;75;26311;-43
2022/04/08 02:49:50;;;;;;;0.47;0.20;;;;;;;;;;1876123;74;26236;-41
2022/04/08 02:52:17;;;;;;;0.55;0.10;;;;;;;;;;1895579;74;26733;-41
2022/04/08 02:54:44;;;;;;;1.20;0.37;;;;;;;;;;1886277;75;26261;-45
2022/04/08 02:57:12;;;;;;;1.10;0.20;;;;;;;;;;1902194;75;26316;-38
2022/04/08 02:59:39;;;;;;;0.57;0.13;;;;;;;;;;1902182;75;26293;-38
2022/04/08 03:02:06;;;;;;;0.20;0.20;;;;;;;;;;1883474;74;26185;-40
2022/04/08 03:04:34;;;;;;;0.20;0.20;;;;;;;;;;1867009;75;26263;-40
2022/04/08 03:07:03;;;;;;;0.28;0.17;;;;;;;;;;1902237;75;26226;-41
2022/04/08 03:09:30;;;;;;;0.68;0.40;;;;;;;;;;1901651;74;26693;-50
2022/04/08 03:11:57;;;;;;;0.65;0.30;;;;;;;;;;1902143;75;26799;-40
2022/04/08 03:14:24;;;;;;;0.30;0.30;;;;;;;;;;1887661;74;26909;-44
2022/04/08 03:16:52;;;;;;;0.62;0.23;;;;;;;;;;1898120;75;26226;-45
2022/04/08 03:19:19;;;;;;;0.30;0.30;;;;;;;;;;1901035;74;26339;-46
2022/04/08 03:21:47;;;;;;;0.33;0.33;;;;;;;;;;1895621;74;26314;-40
2022/04/08 03:24:15;;;;;;;0.20;0.20;;;;;;;;;;1896136;75;27325;-44
2022/04/08 03:26:43;;;;;;;0.33;0.23;;;;;;;;;;1897933;74;26311;-47
2022/04/08 03:29:10;;;;;;;0.28;0.28;;;;;;;;;;1900872;75;26254;-45
2022/04/08 03:31:37;;;;;;;2.35;0.30;;;;;;;;;;1901264;75;26289;-45
2022/04/08 03:34:05;;;;;;;0.30;0.30;;;;;;;;;;1895707;75;26244;-41
2022/04/08 03:36:33;;;;;;;0.10;0.10;;;;;;;;;;1900657;75;26831;-46
2022/04/08 03:39:00;;;;;;;1.10;0.10;;;;;;;;;;1898204;75;26731;-44
2022/04/08 03:41:27;;;;;;;0.20;0.20;;;;;;;;;;1904967;75;26275;-37
2022/04/08 03:43:54;;;;;;;0.30;0.30;;;;;;;;;;1902235;75;26230;-42
2022/04/08 03:46:22;;;;;;;0.75;0.30;;;;;;;;;;1905222;75;26261;-51
2022/04/08 03:48:49;;;;;;;2.27;0.30;;;;;;;;;;1895056;74;26236;-39
2022/04/08 03:51:16;;;;;;;0.20;0.20;;;;;;;;;;1900732;74;26252;-46
2022/04/08 03:53:44;;;;;;;0.88;0.30;;;;;;;;;;1903410;75;26295;-43
2022/04/08 03:56:11;;;;;;;0.88;0.17;;;;;;;;;;1897378;75;26288;-40
2022/04/08 03:58:38;;;;;;;1.57;0.30;;;;;;;;;;1900362;75;26257;-43
2022/04/08 04:01:05;;;;;;;0.30;0.30;;;;;;;;;;1904523;74;26351;-39
2022/04/08 04:03:33;;;;;;;1.42;0.30;;;;;;;;;;1895841;75;26229;-48
2022/04/08 04:06:01;;;;;;;0.30;0.30;;;;;;;;;;1895847;75;26217;-42
2022/04/08 04:08:28;;;;;;;1.65;0.30;;;;;;;;;;1902095;75;26262;-42
2022/04/08 04:10:55;;;;;;;3.60;0.40;;;;;;;;;;1900676;74;26351;-42
2022/04/08 04:13:23;;;;;;;0.30;0.30;;;;;;;;;;1905699;74;26315;-46
2022/04/08 04:15:50;;;;;;;2.30;0.85;;;;;;;;;;1897611;74;26329;-47
2022/04/08 04:18:18;;;;;;;7.12;0.53;;;;;;;;;;1898943;75;26639;-47
2022/04/08 04:20:45;;;;;;;2.62;0.40;;;;;;;;;;1894315;75;26274;-43
2022/04/08 04:23:12;;;;;;;0.50;0.33;;;;;;;;;;1892704;74;26231;-40
2022/04/08 04:25:39;;;;;;;1.90;0.37;;;;;;;;;;1896953;75;26280;-42
2022/04/08 04:28:07;;;;;;;0.82;0.45;;;;;;;;;;1904292;75;26284;-39
2022/04/08 04:30:34;;;;;;;1.22;0.30;;;;;;;;;;1887896;75;26818;-51
2022/04/08 04:33:02;;;;;;;1.85;0.40;;;;;;;;;;1887154;75;26356;-42
2022/04/08 04:35:30;;;;;;;1.35;0.30;;;;;;;;;;1893181;74;26221;-40
2022/04/08 04:37:57;;;;;;;2.00;0.57;;;;;;;;;;1893209;74;26245;-46
2022/04/08 04:40:25;;;;;;;0.40;0.40;;;;;;;;;;1887345;75;26230;-36
2022/04/08 04:42:53;;;;;;;0.55;0.40;;;;;;;;;;1885352;75;26243;-38
2022/04/08 04:45:20;;;;;;;0.60;0.33;;;;;;;;;;1884900;75;26214;-44
2022/04/08 04:47:47;;;;;;;0.37;0.37;;;;;;;;;;1897185;74;26154;-42
2022/04/08 04:50:14;;;;;;;0.82;0.40;;;;;;;;;;1894890;75;26212;-38
2022/04/08 04:52:42;;;;;;;3.02;0.40;;;;;;;;;;1893518;75;26313;-48
2022/04/08 04:55:09;;;;;;;0.82;0.40;;;;;;;;;;1890332;75;26258;-39
2022/04/08 04:57:37;;;;;;;2.08;0.50;;;;;;;;;;1894984;74;26244;-46
2022/04/08 05:00:06;;;;;;;0.82;0.30;;;;;;;;;;1890027;74;26268;-43
2022/04/08 05:02:34;;;;;;;1.50;0.37;;;;;;;;;;1891697;74;26230;-42
2022/04/08 05:05:02;;;;;;;0.40;0.40;;;;;;;;;;1893640;75;26624;-45
2022/04/08 05:07:29;;;;;;;1.22;0.82;;;;;;;;;;1901007;75;26214;-45
2022/04/08 05:09:56;;;;;;;0.30;0.30;;;;;;;;;;1894107;74;26283;-49
2022/04/08 05:12:23;;;;;;;0.30;0.30;;;;;;;;;;1885558;75;26306;-41
2022/04/08 05:14:51;;;;;;;1.85;0.30;;;;;;;;;;1888821;75;26283;-43
2022/04/08 05:17:18;;;;;;;0.70;0.37;;;;;;;;;;1896482;75;26357;-41
2022/04/08 05:19:45;;;;;;;0.78;0.28;;;;;;;;;;1894003;75;26312;-46
2022/04/08 05:22:13;;;;;;;3.60;0.40;;;;;;;;;;1896747;74;26230;-44
2022/04/08 05:24:40;;;;;;;0.30;0.30;;;;;;;;;;1892151;75;26247;-39
2022/04/08 05:27:07;;;;;;;0.30;0.30;;;;;;;;;;1896997;75;26240;-46
2022/04/08 05:29:35;;;;;;;0.85;0.40;;;;;;;;;;1889858;74;26288;-45
2022/04/08 05:32:02;;;;;;;1.02;0.37;;;;;;;;;;1899510;75;26646;-40
2022/04/08 05:34:29;;;;;;;1.62;0.30;;;;;;;;;;1885398;74;26692;-43
2022/04/08 05:36:56;;;;;;;5.15;0.42;;;;;;;;;;1884065;75;26718;-57
2022/04/08 05:39:24;;;;;;;3.60;0.28;;;;;;;;;;1897111;75;26312;-50
2022/04/08 05:41:51;;;;;;;1.32;0.37;;;;;;;;;;1893123;75;26532;-45
2022/04/08 05:44:18;;;;;;;0.98;0.30;;;;;;;;;;1894734;74;26230;-58
2022/04/08 05:46:45;;;;;;;0.98;0.23;;;;;;;;;;1897074;75;26218;-53
2022/04/08 05:49:13;;;;;;;2.98;0.40;;;;;;;;;;1901889;75;26226;-44
2022/04/08 05:51:40;;;;;;;2.55;0.40;;;;;;;;;;1889048;75;25730;-45
2022/04/08 05:54:07;;;;;;;0.72;0.37;;;;;;;;;;1895581;75;26683;-46
2022/04/08 05:56:35;;;;;;;1.32;0.47;;;;;;;;;;1882383;74;26255;-56
2022/04/08 05:59:02;;;;;;;0.75;0.42;;;;;;;;;;1895243;74;26234;-42
2022/04/08 06:01:29;;;;;;;0.50;0.35;;;;;;;;;;1901225;75;26288;-50
2022/04/08 06:03:57;;;;;;;1.47;0.50;;;;;;;;;;1892647;75;26226;-45
2022/04/08 06:06:24;;;;;;;0.35;0.35;;;;;;;;;;1893363;75;26276;-44
2022/04/08 06:08:51;;;;;;;1.52;1.00;;;;;;;;;;1889718;74;26304;-43
2022/04/08 06:11:19;;;;;;;2.40;1.25;;;;;;;;;;1893759;74;26288;-51
2022/04/08 06:13:46;;;;;;;1.45;1.00;;;;;;;;;;1887834;74;26319;-59
2022/04/08 06:16:13;;;;;;;3.40;1.30;;;;;;;;;;1900006;75;26284;-43
2022/04/08 06:18:41;;;;;;;2.08;0.93;;;;;;;;;;1882486;74;26338;-51
2022/04/08 06:21:08;;;;;;;3.25;1.00;;;;;;;;;;1881721;75;26323;-39
2022/04/08 06:23:35;;;;;;;3.50;0.93;;;;;;;;;;1881030;74;26688;-46
2022/04/08 06:26:02;;;;;;;3.22;1.10;;;;;;;;;;1901398;75;26767;-52
2022/04/08 06:28:30;;;;;;;7.28;1.10;;;;;;;;;;1901734;75;26289;-48
2022/04/08 06:30:57;;;;;;;4.60;0.98;;;;;;;;;;1913624;74;26230;-47
2022/04/08 06:33:24;;;;;;;0.80;0.80;;;;;;;;;;1890064;74;26658;-48
2022/04/08 06:35:52;;;;;;;2.30;0.90;;;;;;;;;;1901494;74;26759;-54
2022/04/08 06:38:19;;;;;;;2.80;0.70;;;;;;;;;;1885444;75;26276;-46
2022/04/08 06:40:46;;;;;;;2.20;0.80;;;;;;;;;;1901364;75;26244;-63
2022/04/08 06:43:14;;;;;;;0.60;0.60;;;;;;;;;;1870816;74;26245;-49
2022/04/08 06:45:41;;;;;;;1.57;0.60;;;;;;;;;;1886300;74;26701;-53
2022/04/08 06:48:09;;;;;;;2.45;0.60;;;;;;;;;;1902238;75;26665;-45
2022/04/08 06:50:36;;;;;;;0.50;0.50;;;;;;;;;;1880428;75;26298;-51
2022/04/08 06:53:04;;;;;;;0.40;0.40;;;;;;;;;;1891594;74;26756;-46
2022/04/08 06:55:31;;;;;;;0.57;0.57;;;;;;;;;;1894033;74;26238;-46
2022/04/08 06:57:59;;;;;;;0.40;0.40;;;;;;;;;;1896136;74;26240;-41
2022/04/08 07:00:30;;;;;;;2.30;0.50;;;;;;;;;;1908579;74;26182;-47
2022/04/08 07:02:57;;;;;;;1.20;0.30;;;;;;;;;;1897329;74;26248;-46
2022/04/08 07:05:25;;;;;;;0.88;0.40;;;;;;;;;;1886861;74;26298;-46
2022/04/08 07:07:53;;;;;;;3.50;0.60;;;;;;;;;;1897807;74;26246;-49
2022/04/08 07:10:20;;;;;;;0.42;0.37;;;;;;;;;;1881955;74;26358;-49
2022/04/08 07:12:48;;;;;;;3.87;0.40;;;;;;;;;;1878121;75;26240;-48
2022/04/08 07:15:15;;;;;;;0.78;0.33;;;;;;;;;;1889524;74;26226;-43
2022/04/08 07:17:42;;;;;;;1.92;0.50;;;;;;;;;;1891742;74;26900;-47
2022/04/08 07:20:11;;;;;;;0.40;0.40;;;;;;;;;;1908317;74;26234;-48
2022/04/08 07:22:38;;;;;;;0.62;0.50;;;;;;;;;;1901431;74;26609;-52
2022/04/08 07:25:06;;;;;;;0.40;0.30;;;;;;;;;;1900780;75;26250;-44
2022/04/08 07:27:35;;;;;;;1.15;0.25;;;;;;;;;;1899329;75;26732;-52
2022/04/08 07:30:02;;;;;;;2.15;0.50;;;;;;;;;;1885152;74;26717;-47
2022/04/08 07:32:29;;;;;;;0.70;0.28;;;;;;;;;;1888519;75;26232;-52
2022/04/08 07:34:57;;;;;;;0.40;0.40;;;;;;;;;;1901915;75;26283;-45
2022/04/08 07:37:32;;;;;;;3.27;0.30;;;;;;;;;;1894221;75;25741;-49
2022/04/08 07:40:00;;;;;;;1.57;0.55;;;;;;;;;;1893362;74;26614;-46
2022/04/08 07:42:28;;;;;;;3.83;0.30;;;;;;;;;;1880378;75;26741;-46
2022/04/08 07:44:55;;;;;;;0.47;0.23;;;;;;;;;;1895435;74;26218;-45
2022/04/08 07:47:24;;;;;;;1.55;0.20;;;;;;;;;;1900914;74;26237;-43
2022/04/08 07:49:53;;;;;;;1.00;0.20;;;;;;;;;;1895314;74;26253;-48
2022/04/08 07:52:20;;;;;;;4.67;0.40;;;;;;;;;;1890637;74;26299;-49
2022/04/08 07:54:47;;;;;;;1.17;0.20;;;;;;;;;;1909405;74;26222;-50
2022/04/08 07:57:14;;;;;;;0.20;0.20;;;;;;;;;;1908070;74;26248;-49
2022/04/08 07:59:43;;;;;;;0.30;0.30;;;;;;;;;;1881076;74;26248;-47
2022/04/08 08:02:10;;;;;;;1.55;0.28;;;;;;;;;;1886420;75;26354;-52
2022/04/08 08:04:38;;;;;;;0.20;0.20;;;;;;;;;;1888923;74;27374;-44
2022/04/08 08:07:06;;;;;;;1.27;0.20;;;;;;;;;;1881131;74;26352;-46
2022/04/08 08:09:34;;;;;;;1.05;0.25;;;;;;;;;;1894766;74;26348;-48
2022/04/08 08:12:01;;;;;;;0.30;0.20;;;;;;;;;;1887763;74;26693;-43
2022/04/08 08:14:29;;;;;;;0.42;0.28;;;;;;;;;;1888771;74;26295;-42
2022/04/08 08:16:57;;;;;;;0.10;0.10;;;;;;;;;;1882554;75;26606;-42
2022/04/08 08:19:24;;;;;;;0.65;0.10;;;;;;;;;;1882724;75;26264;-48
2022/04/08 08:21:51;;;;;;;0.10;0.10;;;;;;;;;;1890472;74;26706;-47
2022/04/08 08:24:19;;;;;;;0.25;0.15;;;;;;;;;;1902507;75;26225;-42
2022/04/08 08:26:46;;;;;;;0.15;0.15;;;;;;;;;;1892765;74;26237;-51
2022/04/08 08:29:13;;;;;;;0.10;0.10;;;;;;;;;;1897971;74;26221;-43
2022/04/08 08:31:41;;;;;;;0.33;0.20;;;;;;;;;;1897027;75;26705;-49
2022/04/08 08:34:08;;;;;;;0.10;0.10;;;;;;;;;;1899187;75;26654;-42
2022/04/08 08:36:35;;;;;;;0.20;0.20;;;;;;;;;;1899946;75;26714;-45
2022/04/08 08:39:02;;;;;;;0.30;0.20;;;;;;;;;;1896540;74;26221;-45
2022/04/08 08:41:30;;;;;;;0.17;0.10;;;;;;;;;;1902473;75;26261;-45
2022/04/08 08:43:58;;;;;;;0.40;0.10;;;;;;;;;;1897604;75;26287;-51
2022/04/08 08:46:26;;;;;;;0.20;0.20;;;;;;;;;;1902398;75;26222;-45
2022/04/08 08:48:54;;;;;;;0.17;0.17;;;;;;;;;;1893262;74;26268;-49
2022/04/08 08:51:22;;;;;;;0.10;0.10;;;;;;;;;;1882671;75;25629;-48
2022/04/08 08:53:49;;;;;;;0.00;0.00;;;;;;;;;;1880806;75;26351;-46
2022/04/08 08:56:17;;;;;;;0.15;0.15;;;;;;;;;;1902385;75;26375;-45
2022/04/08 08:58:44;;;;;;;0.30;0.20;;;;;;;;;;1897955;74;26715;-45
2022/04/08 09:01:11;;;;;;;0.20;0.20;;;;;;;;;;1895571;74;26740;-43
2022/04/08 09:03:41;;;;;;;0.05;0.03;;;;;;;;;;1872069;75;26194;-50
2022/04/08 09:06:08;;;;;;;0.10;0.10;;;;;;;;;;1899938;75;26682;-43
2022/04/08 09:08:36;;;;;;;0.20;0.20;;;;;;;;;;1899531;75;26254;-45
2022/04/08 09:11:04;;;;;;;0.10;0.08;;;;;;;;;;1882253;74;26256;-43
2022/04/08 09:13:33;;;;;;;0.20;0.20;;;;;;;;;;1915737;74;26284;-43
2022/04/08 09:16:02;;;;;;;3.20;0.10;;;;;;;;;;1895670;75;26328;-42
2022/04/08 09:18:34;;;;;;;0.00;0.00;;;;;;;;;;1891097;75;26253;-50
2022/04/08 09:21:01;;;;;;;0.10;0.10;;;;;;;;;;1893363;74;26210;-41
2022/04/08 09:23:31;;;;;;;0.15;0.15;;;;;;;;;;1887010;74;26231;-46
2022/04/08 09:26:02;;;;;;;0.10;0.10;;;;;;;;;;1898582;74;26237;-46
2022/04/08 09:28:33;;;;;;;0.10;0.10;;;;;;;;;;1900762;75;26973;-46
2022/04/08 09:31:02;;;;;;;0.20;0.20;;;;;;;;;;1897983;75;26226;-46
2022/04/08 09:33:30;;;;;;;0.55;0.00;;;;;;;;;;1887473;75;26241;-46
2022/04/08 09:35:58;;;;;;;0.20;0.10;;;;;;;;;;1906902;74;26213;-43
2022/04/08 09:38:27;;;;;;;0.05;0.05;;;;;;;;;;1891632;74;26292;-43
2022/04/08 09:41:02;;;;;;;0.10;0.10;;;;;;;;;;1885684;74;26306;-43
2022/04/08 09:43:33;;;;;;;0.05;0.05;;;;;;;;;;1901173;75;26226;-44
2022/04/08 09:46:20;;;;;;;0.08;0.08;;;;;;;;;;1901713;74;25965;-44
2022/04/08 09:48:47;;;;;;;2.20;0.30;;;;;;;;;;1896903;75;26249;-46
2022/04/08 09:51:20;;;;;;;0.13;0.13;;;;;;;;;;1902382;75;26691;-50
2022/04/08 09:53:46;;;;;;;2.22;0.30;;;;;;;;;;1889382;74;26251;-47
2022/04/08 09:56:15;;;;;;;0.15;0.10;;;;;;;;;;1901246;74;26226;-43
2022/04/08 09:58:44;;;;;;;0.13;0.13;;;;;;;;;;1896099;74;26241;-44
2022/04/08 10:01:12;;;;;;;4.45;0.25;;;;;;;;;;1894221;74;26288;-42
2022/04/08 10:03:39;;;;;;;0.20;0.00;;;;;;;;;;1907672;74;26765;-46
2022/04/08 10:06:08;;;;;;;0.10;0.10;;;;;;;;;;1902523;74;26320;-44
2022/04/08 10:08:35;;;;;;;0.17;0.10;;;;;;;;;;1887890;75;26238;-45
2022/04/08 10:11:09;;;;;;;0.05;0.05;;;;;;;;;;1904761;73;26336;-43
2022/04/08 10:13:43;;;;;;;2.10;0.10;;;;;;;;;;1878161;75;26672;-41
2022/04/08 10:16:12;;;;;;;5.95;0.93;;;;;;;;;;1897799;74;26219;-46
2022/04/08 10:18:40;;;;;;;0.03;0.03;;;;;;;;;;1885809;74;26407;-43
2022/04/08 10:21:10;;;;;;;2.65;0.30;;;;;;;;;;1897909;74;26288;-46
2022/04/08 10:23:38;;;;;;;1.30;0.10;;;;;;;;;;1858816;75;26294;-44
2022/04/08 10:26:07;;;;;;;0.10;0.10;;;;;;;;;;1858647;76;26283;-42
2022/04/08 10:28:36;;;;;;;0.10;0.10;;;;;;;;;;1868414;76;26238;-44
2022/04/08 10:31:05;;;;;;;0.10;0.10;;;;;;;;;;1859854;76;26254;-38
2022/04/08 10:33:32;;;;;;;0.20;0.20;;;;;;;;;;1867128;76;26300;-43
2022/04/08 10:36:03;;;;;;;0.20;0.20;;;;;;;;;;1853869;76;26296;-43
2022/04/08 10:38:36;;;;;;;0.10;0.10;;;;;;;;;;1862451;76;26241;-43
2022/04/08 10:41:09;;;;;;;1.35;0.10;;;;;;;;;;1860900;76;26247;-44
2022/04/08 10:43:34;;;;;;;0.10;0.10;;;;;;;;;;1863820;76;26256;-48
2022/04/08 10:46:03;;;;;;;0.00;0.00;;;;;;;;;;1863100;76;26735;-43
2022/04/08 10:48:34;;;;;;;0.10;0.10;;;;;;;;;;1861277;76;26758;-41
2022/04/08 10:51:13;;;;;;;0.20;0.20;;;;;;;;;;1859605;76;26270;-42
2022/04/08 10:53:41;;;;;;;0.10;0.10;;;;;;;;;;1868302;76;26254;-46
2022/04/08 10:56:12;;;;;;;0.20;0.20;;;;;;;;;;1872947;76;26253;-44
2022/04/08 10:58:43;;;;;;;0.20;0.20;;;;;;;;;;1868713;75;26654;-42
2022/04/08 11:01:24;;;;;;;0.10;0.10;;;;;;;;;;1866727;76;27170;-43
2022/04/08 11:04:00;;;;;;;0.10;0.10;;;;;;;;;;1869388;76;26238;-48
2022/04/08 11:06:28;;;;;;;1.35;0.10;;;;;;;;;;1862186;75;26280;-41
2022/04/08 11:08:57;;;;;;;0.10;0.10;;;;;;;;;;1855882;76;26257;-39
2022/04/08 11:11:28;;;;;;;0.10;0.10;;;;;;;;;;1864427;76;26813;-41
2022/04/08 11:13:57;;;;;;;0.20;0.20;;;;;;;;;;1835109;76;26328;-40
2022/04/08 11:16:24;;;;;;;0.10;0.10;;;;;;;;;;1856030;76;26284;-41
2022/04/08 11:18:51;;;;;;;0.10;0.10;;;;;;;;;;1859118;76;26297;-41
2022/04/08 11:21:19;;;;;;;0.17;0.10;;;;;;;;;;1869428;75;26307;-41
2022/04/08 11:23:58;;;;;;;0.00;0.00;;;;;;;;;;1895036;75;26253;-40
2022/04/08 11:26:27;;;;;;;1.40;0.20;;;;;;;;;;1907497;74;26675;-40
2022/04/08 11:28:56;;;;;;;0.10;0.10;;;;;;;;;;1891864;74;26477;-41
2022/04/08 11:31:24;;;;;;;0.10;0.10;;;;;;;;;;1886537;74;26288;-40
2022/04/08 11:33:51;;;;;;;0.10;0.10;;;;;;;;;;1889898;74;26606;-45
2022/04/08 11:36:23;;;;;;;0.20;0.20;;;;;;;;;;1894013;74;26182;-42
2022/04/08 11:38:50;;;;;;;0.10;0.10;;;;;;;;;;1894201;74;26324;-45
2022/04/08 11:41:19;;;;;;;0.10;0.10;;;;;;;;;;1896477;74;26202;-40
2022/04/08 11:43:47;;;;;;;0.10;0.10;;;;;;;;;;1894082;75;26281;-44
2022/04/08 11:46:15;;;;;;;0.10;0.10;;;;;;;;;;1893122;74;26197;-42
2022/04/08 11:48:43;;;;;;;0.00;0.00;;;;;;;;;;1892096;74;26688;-47
2022/04/08 11:51:11;;;;;;;0.10;0.10;;;;;;;;;;1893208;74;26303;-43
2022/04/08 11:53:45;;;;;;;0.10;0.10;;;;;;;;;;1890257;74;27416;-43
2022/04/08 11:56:14;;;;;;;0.10;0.10;;;;;;;;;;1877262;74;26311;-43
2022/04/08 11:58:43;;;;;;;0.10;0.10;;;;;;;;;;1902084;74;26222;-44
2022/04/08 12:01:10;;;;;;;0.10;0.10;;;;;;;;;;1899657;74;26234;-41
2022/04/08 12:03:39;;;;;;;0.10;0.10;;;;;;;;;;1884501;74;27282;-40
2022/04/08 12:06:06;;;;;;;0.10;0.10;;;;;;;;;;1880762;74;26246;-41
2022/04/08 12:08:34;;;;;;;0.10;0.10;;;;;;;;;;1891175;75;26257;-43
2022/04/08 12:11:02;;;;;;;0.62;0.10;;;;;;;;;;1885108;74;26270;-49
2022/04/08 12:13:29;;;;;;;0.20;0.20;;;;;;;;;;1891605;74;26634;-43
2022/04/08 12:15:58;;;;;;;0.45;0.10;;;;;;;;;;1883163;74;26229;-43
2022/04/08 12:18:26;;;;;;;1.55;0.10;;;;;;;;;;1907035;74;26307;-41
2022/04/08 12:20:55;;;;;;;0.50;0.10;;;;;;;;;;1896037;74;26750;-48
2022/04/08 12:23:23;;;;;;;0.53;0.17;;;;;;;;;;1887922;75;27292;-44
2022/04/08 12:25:52;;;;;;;0.00;0.00;;;;;;;;;;1873593;76;26226;-44
2022/04/08 12:28:22;;;;;;;0.00;0.00;;;;;;;;;;1869120;75;26310;-40
2022/04/08 12:30:49;;;;;;;2.35;0.10;;;;;;;;;;1863929;75;26303;-42
2022/04/08 12:33:17;;;;;;;0.15;0.15;;;;;;;;;;1855272;76;26292;-47
2022/04/08 12:35:48;;;;;;;0.20;0.20;;;;;;;;;;1863464;76;26804;-46
2022/04/08 12:38:24;;;;;;;0.00;0.00;;;;;;;;;;1861285;76;26252;-45
2022/04/08 12:40:45;;;;;;;0.10;0.10;;;;;;;;;;1867859;75;26271;-46
2022/04/08 12:43:12;;;;;;;0.10;0.10;;;;;;;;;;1852539;76;26288;-42
2022/04/08 12:45:39;;;;;;;0.10;0.10;;;;;;;;;;1873515;76;26285;-43
2022/04/08 12:48:07;;;;;;;0.05;0.05;;;;;;;;;;1857262;75;26740;-42
2022/04/08 12:50:35;;;;;;;0.20;0.20;;;;;;;;;;1859256;76;26228;-41
2022/04/08 12:53:03;;;;;;;0.00;0.00;;;;;;;;;;1868696;75;26657;-39
2022/04/08 12:55:30;;;;;;;0.10;0.10;;;;;;;;;;1845086;76;26237;-38
2022/04/08 12:57:57;;;;;;;0.55;0.10;;;;;;;;;;1868737;76;26242;-38
2022/04/08 13:00:25;;;;;;;0.03;0.03;;;;;;;;;;1864480;76;26224;-39
2022/04/08 13:02:53;;;;;;;0.00;0.00;;;;;;;;;;1868696;76;26751;-39
2022/04/08 13:05:20;;;;;;;0.10;0.10;;;;;;;;;;1864238;76;26288;-39
2022/04/08 13:07:47;;;;;;;0.10;0.10;;;;;;;;;;1864516;76;26281;-44
2022/04/08 13:10:15;;;;;;;0.10;0.10;;;;;;;;;;1867962;75;26725;-48
2022/04/08 13:12:42;;;;;;;0.00;0.00;;;;;;;;;;1859640;76;26196;-43
2022/04/08 13:15:10;;;;;;;0.10;0.10;;;;;;;;;;1868089;76;26222;-39
2022/04/08 13:17:38;;;;;;;0.33;0.17;;;;;;;;;;1872189;76;27418;-41
2022/04/08 13:20:16;;;;;;;0.25;0.25;;;;;;;;;;1853493;76;26318;-40
2022/04/08 13:22:41;;;;;;;0.20;0.20;;;;;;;;;;1861149;75;26706;-45
2022/04/08 13:25:09;;;;;;;0.00;0.00;;;;;;;;;;1881474;74;26771;-42
2022/04/08 13:27:37;;;;;;;0.10;0.10;;;;;;;;;;1882501;75;26219;-38
2022/04/08 13:30:05;;;;;;;0.13;0.13;;;;;;;;;;1898994;74;26277;-44
2022/04/08 13:32:36;;;;;;;0.08;0.08;;;;;;;;;;1882862;74;26260;-40
2022/04/08 13:35:01;;;;;;;0.10;0.10;;;;;;;;;;1888297;74;26631;-40
2022/04/08 13:37:29;;;;;;;0.00;0.00;;;;;;;;;;1887420;74;26678;-43
2022/04/08 13:39:57;;;;;;;0.35;0.20;;;;;;;;;;1901494;75;26257;-42
2022/04/08 13:42:25;;;;;;;0.20;0.20;;;;;;;;;;1888884;75;26242;-42
2022/04/08 13:44:52;;;;;;;0.08;0.08;;;;;;;;;;1877405;74;26362;-44
2022/04/08 13:47:19;;;;;;;0.10;0.10;;;;;;;;;;1888363;74;26225;-43
2022/04/08 13:49:46;;;;;;;0.10;0.10;;;;;;;;;;1895507;74;26310;-44
2022/04/08 13:52:14;;;;;;;0.00;0.00;;;;;;;;;;1896489;74;26199;-43
2022/04/08 13:54:41;;;;;;;0.20;0.20;;;;;;;;;;1896029;75;26236;-43
2022/04/08 13:57:08;;;;;;;0.10;0.10;;;;;;;;;;1887597;74;26232;-44
2022/04/08 13:59:36;;;;;;;0.10;0.10;;;;;;;;;;1889073;74;26318;-39
2022/04/08 14:02:04;;;;;;;0.20;0.20;;;;;;;;;;1906190;74;26242;-41
2022/04/08 14:04:31;;;;;;;0.00;0.00;;;;;;;;;;1885620;74;26676;-40
2022/04/08 14:06:59;;;;;;;0.10;0.10;;;;;;;;;;1891753;74;26225;-41
2022/04/08 14:09:26;;;;;;;0.17;0.17;;;;;;;;;;1895892;74;26654;-43
2022/04/08 14:11:53;;;;;;;0.10;0.10;;;;;;;;;;1889054;74;28626;-40
2022/04/08 14:14:21;;;;;;;0.10;0.10;;;;;;;;;;1895853;74;26701;-42
2022/04/08 14:16:48;;;;;;;0.10;0.10;;;;;;;;;;1884601;75;26726;-46
2022/04/08 14:19:15;;;;;;;0.20;0.20;;;;;;;;;;1893487;75;26598;-40
2022/04/08 14:21:42;;;;;;;1.30;0.10;;;;;;;;;;1890588;75;26222;-43
2022/04/08 14:24:10;;;;;;;0.10;0.10;;;;;;;;;;1892443;74;26312;-40
2022/04/08 14:26:37;;;;;;;0.10;0.10;;;;;;;;;;1886904;74;27397;-41
2022/04/08 14:29:04;;;;;;;0.08;0.08;;;;;;;;;;1880031;75;26391;-45
2022/04/08 14:31:32;;;;;;;1.90;0.10;;;;;;;;;;1885220;74;26241;-42
2022/04/08 14:33:59;;;;;;;0.20;0.20;;;;;;;;;;1889053;74;26247;-45
2022/04/08 14:36:26;;;;;;;0.30;0.28;;;;;;;;;;1887077;74;26233;-48
2022/04/08 14:38:54;;;;;;;0.10;0.10;;;;;;;;;;1888526;74;26697;-41
2022/04/08 14:41:22;;;;;;;0.17;0.17;;;;;;;;;;1890499;75;26755;-42
2022/04/08 14:43:49;;;;;;;0.10;0.10;;;;;;;;;;1894234;74;26323;-39
2022/04/08 14:46:16;;;;;;;0.42;0.17;;;;;;;;;;1893282;74;26303;-41